createdAt,value
2018-10-17T00:00:00.613Z,0.00
2018-10-17T00:01:00.686Z,0.00
2018-10-17T00:02:00.666Z,0.00
2018-10-17T00:03:00.682Z,0.00
2018-10-17T00:04:00.709Z,0.00
2018-10-17T00:05:00.774Z,0.00
2018-10-17T00:06:00.757Z,0.00
2018-10-17T00:07:00.860Z,0.00
2018-10-17T00:08:00.811Z,0.00
2018-10-17T00:09:00.829Z,0.00
2018-10-17T00:10:00.855Z,0.00
2018-10-17T00:11:00.970Z,0.00
2018-10-17T00:12:00.904Z,0.00
2018-10-17T00:13:00.940Z,0.00
2018-10-17T00:14:00.954Z,0.00
2018-10-17T00:15:00.974Z,0.00
2018-10-17T00:16:01.002Z,0.00
2018-10-17T00:17:01.053Z,0.00
2018-10-17T00:18:01.053Z,0.00
2018-10-17T00:19:01.083Z,0.00
2018-10-17T00:20:01.097Z,0.00
2018-10-17T00:21:01.117Z,0.00
2018-10-17T00:22:01.140Z,0.00
2018-10-17T00:23:01.239Z,0.00
2018-10-17T00:24:01.194Z,0.00
2018-10-17T00:25:01.297Z,0.00
2018-10-17T00:26:01.241Z,0.00
2018-10-17T00:27:01.273Z,0.00
2018-10-17T00:28:01.290Z,0.00
2018-10-17T00:29:01.343Z,0.00
2018-10-17T00:30:01.341Z,0.00
2018-10-17T00:31:01.376Z,0.00
2018-10-17T00:32:01.384Z,0.00
2018-10-17T00:33:01.414Z,0.00
2018-10-17T00:34:01.435Z,0.00
2018-10-17T00:35:01.523Z,0.00
2018-10-17T00:36:01.485Z,0.00
2018-10-17T00:37:01.568Z,0.00
2018-10-17T00:38:01.535Z,0.00
2018-10-17T00:39:01.560Z,0.00
2018-10-17T00:40:01.584Z,0.00
2018-10-17T00:41:01.641Z,0.00
2018-10-17T00:42:01.633Z,0.00
2018-10-17T00:43:01.710Z,0.00
2018-10-17T00:44:01.681Z,0.00
2018-10-17T00:45:01.703Z,0.00
2018-10-17T00:46:01.732Z,0.00
2018-10-17T00:47:01.782Z,0.00
2018-10-17T00:48:01.777Z,0.00
2018-10-17T00:49:01.859Z,0.00
2018-10-17T00:50:01.826Z,0.00
2018-10-17T00:51:01.849Z,0.00
2018-10-17T00:52:01.872Z,0.00
2018-10-17T00:53:01.918Z,0.00
2018-10-17T00:54:01.925Z,0.00
2018-10-17T00:55:01.969Z,0.00
2018-10-17T00:56:01.974Z,0.00
2018-10-17T00:57:01.998Z,0.00
2018-10-17T00:58:02.018Z,0.00
2018-10-17T00:59:02.110Z,0.00
2018-10-17T01:00:02.067Z,0.00
2018-10-17T01:01:02.096Z,0.00
2018-10-17T01:02:02.116Z,0.00
2018-10-17T01:03:02.138Z,0.00
2018-10-17T01:04:02.162Z,0.00
2018-10-17T01:05:02.199Z,0.00
2018-10-17T01:06:02.229Z,0.00
2018-10-17T01:07:02.261Z,0.00
2018-10-17T01:08:02.258Z,0.00
2018-10-17T01:09:02.284Z,0.00
2018-10-17T01:10:02.311Z,0.00
2018-10-17T01:11:02.392Z,0.00
2018-10-17T01:12:02.360Z,0.00
2018-10-17T01:13:02.403Z,0.00
2018-10-17T01:14:02.406Z,0.00
2018-10-17T01:15:02.428Z,0.00
2018-10-17T01:16:02.452Z,0.00
2018-10-17T01:17:02.538Z,0.00
2018-10-17T01:18:02.502Z,0.00
2018-10-17T01:19:02.548Z,0.00
2018-10-17T01:20:02.550Z,0.00
2018-10-17T01:21:02.573Z,0.00
2018-10-17T01:22:02.597Z,0.00
2018-10-17T01:23:02.680Z,0.00
2018-10-17T01:24:02.645Z,0.00
2018-10-17T01:25:02.678Z,0.00
2018-10-17T01:26:02.693Z,0.00
2018-10-17T01:27:02.718Z,0.00
2018-10-17T01:28:02.743Z,0.00
2018-10-17T01:29:02.820Z,0.00
2018-10-17T01:30:02.797Z,0.00
2018-10-17T01:31:02.867Z,0.00
2018-10-17T01:32:02.838Z,0.00
2018-10-17T01:33:02.862Z,0.00
2018-10-17T01:34:02.890Z,0.00
2018-10-17T01:35:02.938Z,0.00
2018-10-17T01:36:02.934Z,0.00
2018-10-17T01:37:03.020Z,0.00
2018-10-17T01:38:02.985Z,0.00
2018-10-17T01:39:03.009Z,0.00
2018-10-17T01:40:03.031Z,0.00
2018-10-17T01:41:03.068Z,0.00
2018-10-17T01:42:03.079Z,0.00
2018-10-17T01:43:03.123Z,0.00
2018-10-17T01:44:03.130Z,0.00
2018-10-17T01:45:03.155Z,0.00
2018-10-17T01:46:03.180Z,0.00
2018-10-17T01:47:03.242Z,0.00
2018-10-17T01:48:03.226Z,0.00
2018-10-17T01:49:03.265Z,0.00
2018-10-17T01:50:03.276Z,0.00
2018-10-17T01:51:03.300Z,0.00
2018-10-17T01:52:03.319Z,0.00
2018-10-17T01:53:03.365Z,0.00
2018-10-17T01:54:03.377Z,0.00
2018-10-17T01:55:03.474Z,0.00
2018-10-17T01:56:03.419Z,0.00
2018-10-17T01:57:03.442Z,0.00
2018-10-17T01:58:03.466Z,0.00
2018-10-17T01:59:03.530Z,0.00
2018-10-17T02:00:03.518Z,0.00
2018-10-17T02:01:03.584Z,0.00
2018-10-17T02:02:03.567Z,0.00
2018-10-17T02:03:03.587Z,0.00
2018-10-17T02:04:03.610Z,0.00
2018-10-17T02:05:03.658Z,0.00
2018-10-17T02:06:03.658Z,0.00
2018-10-17T02:07:03.731Z,0.00
2018-10-17T02:08:03.706Z,0.00
2018-10-17T02:09:03.736Z,0.00
2018-10-17T02:10:03.755Z,0.00
2018-10-17T02:11:03.854Z,0.00
2018-10-17T02:12:03.803Z,0.00
2018-10-17T02:13:03.887Z,0.00
2018-10-17T02:14:03.853Z,0.00
2018-10-17T02:15:03.880Z,0.00
2018-10-17T02:16:03.899Z,0.00
2018-10-17T02:17:03.989Z,0.00
2018-10-17T02:18:03.950Z,0.00
2018-10-17T02:19:03.998Z,0.00
2018-10-17T02:20:03.995Z,0.00
2018-10-17T02:21:04.020Z,0.00
2018-10-17T02:22:04.044Z,0.00
2018-10-17T02:23:04.107Z,0.00
2018-10-17T02:24:04.090Z,0.00
2018-10-17T02:25:04.193Z,0.00
2018-10-17T02:26:04.140Z,0.00
2018-10-17T02:27:04.164Z,0.00
2018-10-17T02:28:04.187Z,0.00
2018-10-17T02:29:04.248Z,0.00
2018-10-17T02:30:04.304Z,0.00
2018-10-17T02:31:04.328Z,0.00
2018-10-17T02:32:04.284Z,0.00
2018-10-17T02:33:04.312Z,0.00
2018-10-17T02:34:04.333Z,0.00
2018-10-17T02:35:04.418Z,0.00
2018-10-17T02:36:04.380Z,0.00
2018-10-17T02:37:04.460Z,0.00
2018-10-17T02:38:04.430Z,0.00
2018-10-17T02:39:04.453Z,0.00
2018-10-17T02:40:04.479Z,0.00
2018-10-17T02:41:04.602Z,0.00
2018-10-17T02:42:04.524Z,0.00
2018-10-17T02:43:04.568Z,0.00
2018-10-17T02:44:04.573Z,0.00
2018-10-17T02:45:04.599Z,0.00
2018-10-17T02:46:04.625Z,0.00
2018-10-17T02:47:04.648Z,0.00
2018-10-17T02:48:04.673Z,0.00
2018-10-17T02:49:04.755Z,0.00
2018-10-17T02:50:04.718Z,0.00
2018-10-17T02:51:04.742Z,0.00
2018-10-17T02:52:04.768Z,0.00
2018-10-17T02:53:04.890Z,0.00
2018-10-17T02:54:04.815Z,0.00
2018-10-17T02:55:04.924Z,0.00
2018-10-17T02:56:04.863Z,0.00
2018-10-17T02:57:04.886Z,0.00
2018-10-17T02:58:04.912Z,0.00
2018-10-17T02:59:05.086Z,0.00
2018-10-17T03:00:04.976Z,0.00
2018-10-17T03:01:05.049Z,0.00
2018-10-17T03:02:05.030Z,0.00
2018-10-17T03:03:05.032Z,0.00
2018-10-17T03:04:05.055Z,0.00
2018-10-17T03:05:05.141Z,0.00
2018-10-17T03:06:05.105Z,0.00
2018-10-17T03:07:05.248Z,0.00
2018-10-17T03:08:05.156Z,0.00
2018-10-17T03:09:05.173Z,0.00
2018-10-17T03:10:05.203Z,0.00
2018-10-17T03:11:05.243Z,0.00
2018-10-17T03:12:05.270Z,0.00
2018-10-17T03:13:05.322Z,0.00
2018-10-17T03:14:05.297Z,0.00
2018-10-17T03:15:05.320Z,0.00
2018-10-17T03:16:05.346Z,0.00
2018-10-17T03:17:05.428Z,0.00
2018-10-17T03:18:05.397Z,0.00
2018-10-17T03:19:05.479Z,0.00
2018-10-17T03:20:05.466Z,0.00
2018-10-17T03:21:05.464Z,0.00
2018-10-17T03:22:05.488Z,0.00
2018-10-17T03:23:05.609Z,0.00
2018-10-17T03:24:05.538Z,0.00
2018-10-17T03:25:05.626Z,0.00
2018-10-17T03:26:05.587Z,0.00
2018-10-17T03:27:05.608Z,0.00
2018-10-17T03:28:05.789Z,0.00
2018-10-17T03:29:05.678Z,0.00
2018-10-17T03:30:05.681Z,0.00
2018-10-17T03:31:05.801Z,0.00
2018-10-17T03:32:05.731Z,0.00
2018-10-17T03:33:05.754Z,0.00
2018-10-17T03:34:05.781Z,0.00
2018-10-17T03:35:05.849Z,0.00
2018-10-17T03:36:05.850Z,0.00
2018-10-17T03:37:05.883Z,0.00
2018-10-17T03:38:05.877Z,0.00
2018-10-17T03:39:05.900Z,0.00
2018-10-17T03:40:05.928Z,0.00
2018-10-17T03:41:05.993Z,0.00
2018-10-17T03:42:05.976Z,0.00
2018-10-17T03:43:06.056Z,0.00
2018-10-17T03:44:06.020Z,0.00
2018-10-17T03:45:06.043Z,0.00
2018-10-17T03:46:06.066Z,0.00
2018-10-17T03:47:06.204Z,0.00
2018-10-17T03:48:06.114Z,0.00
2018-10-17T03:49:06.191Z,0.00
2018-10-17T03:50:06.160Z,0.00
2018-10-17T03:51:06.184Z,0.00
2018-10-17T03:52:06.211Z,0.00
2018-10-17T03:53:06.252Z,0.00
2018-10-17T03:54:06.258Z,0.00
2018-10-17T03:55:06.349Z,0.00
2018-10-17T03:56:06.302Z,0.00
2018-10-17T03:57:06.329Z,0.00
2018-10-17T03:58:06.356Z,0.00
2018-10-17T03:59:06.455Z,0.00
2018-10-17T04:00:06.401Z,0.00
2018-10-17T04:01:06.458Z,0.00
2018-10-17T04:02:06.449Z,0.00
2018-10-17T04:03:06.572Z,0.00
2018-10-17T04:04:06.496Z,0.00
2018-10-17T04:05:06.579Z,0.00
2018-10-17T04:06:06.550Z,0.00
2018-10-17T04:07:06.620Z,0.00
2018-10-17T04:08:06.592Z,0.00
2018-10-17T04:09:06.616Z,0.00
2018-10-17T04:10:06.642Z,0.00
2018-10-17T04:11:06.691Z,0.00
2018-10-17T04:12:06.690Z,0.00
2018-10-17T04:13:06.736Z,0.00
2018-10-17T04:14:06.737Z,0.00
2018-10-17T04:15:06.761Z,0.00
2018-10-17T04:16:06.789Z,0.00
2018-10-17T04:17:06.869Z,0.00
2018-10-17T04:18:06.831Z,0.00
2018-10-17T04:19:06.930Z,0.00
2018-10-17T04:20:06.880Z,0.00
2018-10-17T04:21:06.903Z,0.00
2018-10-17T04:22:06.930Z,0.00
2018-10-17T04:23:07.092Z,0.00
2018-10-17T04:24:06.982Z,0.00
2018-10-17T04:25:07.022Z,0.00
2018-10-17T04:26:07.034Z,0.00
2018-10-17T04:27:07.053Z,0.00
2018-10-17T04:28:07.079Z,0.00
2018-10-17T04:29:07.233Z,0.00
2018-10-17T04:30:07.124Z,0.00
2018-10-17T04:31:07.158Z,0.00
2018-10-17T04:32:07.178Z,0.00
2018-10-17T04:33:07.196Z,0.00
2018-10-17T04:34:07.216Z,0.00
2018-10-17T04:35:07.291Z,0.00
2018-10-17T04:36:07.288Z,0.00
2018-10-17T04:37:07.334Z,0.00
2018-10-17T04:38:07.319Z,0.00
2018-10-17T04:39:07.343Z,0.00
2018-10-17T04:40:07.362Z,0.00
2018-10-17T04:41:07.395Z,0.00
2018-10-17T04:42:07.414Z,0.00
2018-10-17T04:43:07.503Z,0.00
2018-10-17T04:44:07.476Z,0.00
2018-10-17T04:45:07.491Z,0.00
2018-10-17T04:46:07.509Z,0.00
2018-10-17T04:47:07.588Z,0.00
2018-10-17T04:48:07.560Z,0.00
2018-10-17T04:49:07.656Z,0.00
2018-10-17T04:50:07.603Z,0.00
2018-10-17T04:51:07.628Z,0.00
2018-10-17T04:52:07.654Z,0.00
2018-10-17T04:53:07.744Z,0.00
2018-10-17T04:54:07.701Z,0.00
2018-10-17T04:55:07.788Z,0.00
2018-10-17T04:56:07.751Z,0.00
2018-10-17T04:57:07.775Z,0.00
2018-10-17T04:58:07.807Z,0.00
2018-10-17T04:59:07.885Z,0.00
2018-10-17T05:00:07.847Z,0.00
2018-10-17T05:01:07.925Z,0.00
2018-10-17T05:02:07.894Z,0.00
2018-10-17T05:03:07.915Z,0.00
2018-10-17T05:04:07.950Z,0.00
2018-10-17T05:05:08.024Z,0.00
2018-10-17T05:06:07.991Z,0.00
2018-10-17T05:07:08.074Z,0.00
2018-10-17T05:08:08.040Z,0.00
2018-10-17T05:09:08.061Z,0.00
2018-10-17T05:10:08.094Z,0.00
2018-10-17T05:11:08.171Z,0.00
2018-10-17T05:12:08.135Z,0.00
2018-10-17T05:13:08.229Z,0.00
2018-10-17T05:14:08.191Z,0.00
2018-10-17T05:15:08.225Z,0.00
2018-10-17T05:16:08.233Z,0.00
2018-10-17T05:17:08.299Z,0.00
2018-10-17T05:18:08.277Z,0.00
2018-10-17T05:19:08.327Z,0.00
2018-10-17T05:20:08.328Z,0.00
2018-10-17T05:21:08.356Z,0.00
2018-10-17T05:22:08.377Z,0.00
2018-10-17T05:23:08.461Z,0.00
2018-10-17T05:24:08.425Z,0.00
2018-10-17T05:25:08.537Z,4.00
2018-10-17T05:26:08.477Z,0.00
2018-10-17T05:27:08.499Z,0.00
2018-10-17T05:28:08.519Z,4.00
2018-10-17T05:29:08.603Z,4.00
2018-10-17T05:30:08.574Z,4.00
2018-10-17T05:31:08.629Z,4.00
2018-10-17T05:32:08.620Z,4.00
2018-10-17T05:33:08.650Z,8.00
2018-10-17T05:34:08.670Z,8.00
2018-10-17T05:35:08.730Z,8.00
2018-10-17T05:36:08.721Z,8.00
2018-10-17T05:37:08.811Z,12.00
2018-10-17T05:38:09.460Z,12.00
2018-10-17T05:39:08.788Z,16.00
2018-10-17T05:40:08.807Z,16.00
2018-10-17T05:41:08.866Z,16.00
2018-10-17T05:42:08.860Z,20.00
2018-10-17T05:43:08.973Z,24.00
2018-10-17T05:44:08.906Z,28.00
2018-10-17T05:45:08.933Z,32.00
2018-10-17T05:46:08.957Z,36.00
2018-10-17T05:47:09.043Z,44.00
2018-10-17T05:48:09.010Z,44.00
2018-10-17T05:49:09.097Z,48.00
2018-10-17T05:50:09.049Z,60.00
2018-10-17T05:51:09.078Z,64.00
2018-10-17T05:52:09.101Z,68.00
2018-10-17T05:53:09.281Z,76.00
2018-10-17T05:54:09.148Z,80.00
2018-10-17T05:55:09.271Z,92.00
2018-10-17T05:56:09.198Z,96.00
2018-10-17T05:57:09.219Z,104.00
2018-10-17T05:58:09.249Z,112.00
2018-10-17T05:59:09.335Z,116.00
2018-10-17T06:00:09.290Z,124.00
2018-10-17T06:01:09.349Z,128.00
2018-10-17T06:02:09.435Z,132.00
2018-10-17T06:03:09.369Z,140.00
2018-10-17T06:04:09.393Z,144.00
2018-10-17T06:05:09.478Z,156.00
2018-10-17T06:06:09.437Z,164.00
2018-10-17T06:07:09.507Z,168.00
2018-10-17T06:08:09.487Z,180.00
2018-10-17T06:09:09.513Z,188.00
2018-10-17T06:10:09.585Z,200.00
2018-10-17T06:11:09.691Z,208.00
2018-10-17T06:12:09.581Z,216.00
2018-10-17T06:13:09.644Z,224.00
2018-10-17T06:14:09.633Z,232.00
2018-10-17T06:15:09.653Z,236.00
2018-10-17T06:16:09.685Z,244.00
2018-10-17T06:17:09.715Z,256.00
2018-10-17T06:18:09.732Z,268.00
2018-10-17T06:19:09.818Z,284.00
2018-10-17T06:20:09.778Z,296.00
2018-10-17T06:21:09.806Z,308.00
2018-10-17T06:22:09.834Z,768.00
2018-10-17T06:23:09.874Z,880.00
2018-10-17T06:24:09.881Z,944.00
2018-10-17T06:25:10.027Z,988.00
2018-10-17T06:26:09.923Z,1024.00
2018-10-17T06:27:09.951Z,1052.00
2018-10-17T06:28:09.983Z,1060.00
2018-10-17T06:29:10.006Z,1072.00
2018-10-17T06:30:10.021Z,1088.00
2018-10-17T06:31:10.117Z,1088.00
2018-10-17T06:32:10.074Z,1092.00
2018-10-17T06:33:10.095Z,1108.00
2018-10-17T06:34:10.132Z,1152.00
2018-10-17T06:35:10.227Z,1172.00
2018-10-17T06:36:10.163Z,1180.00
2018-10-17T06:37:10.250Z,1216.00
2018-10-17T06:38:10.219Z,1236.00
2018-10-17T06:39:10.242Z,1208.00
2018-10-17T06:40:10.269Z,1196.00
2018-10-17T06:41:10.368Z,1212.00
2018-10-17T06:42:10.313Z,1240.00
2018-10-17T06:43:10.432Z,1252.00
2018-10-17T06:44:10.387Z,1232.00
2018-10-17T06:45:10.385Z,1212.00
2018-10-17T06:46:10.407Z,1196.00
2018-10-17T06:47:10.488Z,1184.00
2018-10-17T06:48:10.461Z,1188.00
2018-10-17T06:49:10.508Z,1200.00
2018-10-17T06:50:10.507Z,1224.00
2018-10-17T06:51:10.592Z,1248.00
2018-10-17T06:52:10.555Z,1276.00
2018-10-17T06:53:10.680Z,1316.00
2018-10-17T06:54:10.642Z,1360.00
2018-10-17T06:55:10.694Z,1412.00
2018-10-17T06:56:10.650Z,1484.00
2018-10-17T06:57:10.682Z,1560.00
2018-10-17T06:58:10.707Z,1624.00
2018-10-17T06:59:10.791Z,1664.00
2018-10-17T07:00:10.754Z,1688.00
2018-10-17T07:01:10.857Z,1716.00
2018-10-17T07:02:10.860Z,1736.00
2018-10-17T07:03:10.833Z,1764.00
2018-10-17T07:04:10.863Z,1792.00
2018-10-17T07:05:10.981Z,1796.00
2018-10-17T07:06:10.910Z,1780.00
2018-10-17T07:07:10.938Z,1768.00
2018-10-17T07:08:10.951Z,1772.00
2018-10-17T07:09:10.990Z,1800.00
2018-10-17T07:10:11.528Z,1816.00
2018-10-17T07:11:11.052Z,1820.00
2018-10-17T07:12:11.051Z,1840.00
2018-10-17T07:13:11.256Z,1856.00
2018-10-17T07:14:11.100Z,1864.00
2018-10-17T07:15:11.129Z,1864.00
2018-10-17T07:16:11.143Z,1844.00
2018-10-17T07:17:11.260Z,1852.00
2018-10-17T07:18:11.193Z,1872.00
2018-10-17T07:19:11.291Z,1900.00
2018-10-17T07:20:11.242Z,1924.00
2018-10-17T07:21:11.267Z,1964.00
2018-10-17T07:22:11.303Z,1988.00
2018-10-17T07:23:11.344Z,1996.00
2018-10-17T07:24:11.345Z,2088.00
2018-10-17T07:25:11.452Z,2108.00
2018-10-17T07:26:11.397Z,2248.00
2018-10-17T07:27:11.412Z,2160.00
2018-10-17T07:28:11.435Z,2112.00
2018-10-17T07:29:11.470Z,2096.00
2018-10-17T07:30:11.495Z,2092.00
2018-10-17T07:31:11.554Z,2144.00
2018-10-17T07:32:11.536Z,2188.00
2018-10-17T07:33:11.556Z,2160.00
2018-10-17T07:34:11.581Z,2140.00
2018-10-17T07:35:11.603Z,2120.00
2018-10-17T07:36:11.691Z,2124.00
2018-10-17T07:37:11.666Z,2180.00
2018-10-17T07:38:11.674Z,2244.00
2018-10-17T07:39:11.698Z,2288.00
2018-10-17T07:40:11.722Z,2320.00
2018-10-17T07:41:11.744Z,2356.00
2018-10-17T07:42:11.824Z,2396.00
2018-10-17T07:43:11.800Z,2448.00
2018-10-17T07:44:11.815Z,2492.00
2018-10-17T07:45:11.855Z,2516.00
2018-10-17T07:46:11.871Z,2532.00
2018-10-17T07:47:11.885Z,2572.00
2018-10-17T07:48:11.974Z,2608.00
2018-10-17T07:49:11.942Z,2636.00
2018-10-17T07:50:11.965Z,2656.00
2018-10-17T07:51:12.958Z,2680.00
2018-10-17T07:52:12.009Z,2684.00
2018-10-17T07:53:12.097Z,2708.00
2018-10-17T07:54:12.174Z,2736.00
2018-10-17T07:55:12.077Z,2752.00
2018-10-17T07:56:12.108Z,2732.00
2018-10-17T07:57:12.132Z,2772.00
2018-10-17T07:58:12.157Z,2816.00
2018-10-17T07:59:12.184Z,2824.00
2018-10-17T08:00:12.279Z,2824.00
2018-10-17T08:01:12.226Z,2796.00
2018-10-17T08:02:12.257Z,2752.00
2018-10-17T08:03:12.279Z,2716.00
2018-10-17T08:04:12.296Z,2660.00
2018-10-17T08:05:12.325Z,2552.00
2018-10-17T08:06:12.461Z,2544.00
2018-10-17T08:07:12.369Z,2624.00
2018-10-17T08:08:12.399Z,2592.00
2018-10-17T08:09:12.422Z,2540.00
2018-10-17T08:10:12.450Z,2508.00
2018-10-17T08:11:12.468Z,2528.00
2018-10-17T08:12:12.541Z,2564.00
2018-10-17T08:13:12.516Z,2564.00
2018-10-17T08:14:12.584Z,2528.00
2018-10-17T08:15:12.566Z,2464.00
2018-10-17T08:16:12.584Z,2464.00
2018-10-17T08:17:12.616Z,2444.00
2018-10-17T08:18:12.746Z,2448.00
2018-10-17T08:19:12.665Z,2460.00
2018-10-17T08:20:12.686Z,2472.00
2018-10-17T08:21:12.773Z,2504.00
2018-10-17T08:22:12.739Z,2548.00
2018-10-17T08:23:12.760Z,2564.00
2018-10-17T08:24:12.799Z,2544.00
2018-10-17T08:25:12.811Z,2512.00
2018-10-17T08:26:12.838Z,2468.00
2018-10-17T08:27:12.932Z,2456.00
2018-10-17T08:28:12.887Z,2448.00
2018-10-17T08:29:12.909Z,2448.00
2018-10-17T08:30:13.060Z,2476.00
2018-10-17T08:31:12.952Z,2460.00
2018-10-17T08:32:12.979Z,2444.00
2018-10-17T08:33:13.007Z,2432.00
2018-10-17T08:34:13.018Z,2444.00
2018-10-17T08:35:13.105Z,2468.00
2018-10-17T08:36:13.251Z,2488.00
2018-10-17T08:37:13.533Z,2468.00
2018-10-17T08:38:13.131Z,2444.00
2018-10-17T08:39:13.158Z,2440.00
2018-10-17T08:40:13.168Z,2416.00
2018-10-17T08:41:13.261Z,2420.00
2018-10-17T08:42:13.228Z,2440.00
2018-10-17T08:43:13.253Z,2440.00
2018-10-17T08:44:13.344Z,2440.00
2018-10-17T08:45:13.420Z,2428.00
2018-10-17T08:46:13.324Z,2432.00
2018-10-17T08:47:13.345Z,2440.00
2018-10-17T08:48:13.376Z,2424.00
2018-10-17T08:49:13.400Z,2396.00
2018-10-17T08:50:13.459Z,2388.00
2018-10-17T08:51:13.440Z,2368.00
2018-10-17T08:52:13.473Z,2352.00
2018-10-17T08:53:13.495Z,2320.00
2018-10-17T08:54:13.548Z,2284.00
2018-10-17T08:55:13.547Z,2244.00
2018-10-17T08:56:13.631Z,2228.00
2018-10-17T08:57:13.590Z,2220.00
2018-10-17T08:58:13.622Z,2212.00
2018-10-17T08:59:13.645Z,2200.00
2018-10-17T09:00:13.672Z,2208.00
2018-10-17T09:01:13.697Z,2224.00
2018-10-17T09:02:13.848Z,2232.00
2018-10-17T09:03:13.740Z,2256.00
2018-10-17T09:04:13.776Z,2284.00
2018-10-17T09:05:13.798Z,2292.00
2018-10-17T09:06:13.848Z,2264.00
2018-10-17T09:07:13.837Z,2272.00
2018-10-17T09:08:13.904Z,2280.00
2018-10-17T09:09:13.888Z,2296.00
2018-10-17T09:10:13.911Z,2308.00
2018-10-17T09:11:13.936Z,2308.00
2018-10-17T09:12:14.175Z,2304.00
2018-10-17T09:13:14.036Z,2316.00
2018-10-17T09:14:14.087Z,2304.00
2018-10-17T09:15:14.041Z,2296.00
2018-10-17T09:16:14.182Z,2304.00
2018-10-17T09:17:14.089Z,2312.00
2018-10-17T09:18:14.126Z,2328.00
2018-10-17T09:19:14.220Z,2352.00
2018-10-17T09:20:14.569Z,2392.00
2018-10-17T09:21:14.490Z,2448.00
2018-10-17T09:22:14.656Z,2472.00
2018-10-17T09:23:14.234Z,2480.00
2018-10-17T09:24:14.328Z,2492.00
2018-10-17T09:25:14.327Z,2512.00
2018-10-17T09:26:14.312Z,2544.00
2018-10-17T09:27:14.337Z,2564.00
2018-10-17T09:28:14.444Z,2580.00
2018-10-17T09:29:14.390Z,2600.00
2018-10-17T09:30:14.446Z,2616.00
2018-10-17T09:31:14.435Z,2648.00
2018-10-17T09:32:14.463Z,2644.00
2018-10-17T09:33:14.490Z,2648.00
2018-10-17T09:34:14.541Z,2656.00
2018-10-17T09:35:14.635Z,2640.00
2018-10-17T09:36:14.676Z,2632.00
2018-10-17T09:37:14.585Z,2604.00
2018-10-17T09:38:14.615Z,2592.00
2018-10-17T09:39:14.631Z,2584.00
2018-10-17T09:40:14.707Z,2584.00
2018-10-17T09:41:14.688Z,2556.00
2018-10-17T09:42:14.781Z,2568.00
2018-10-17T09:43:14.807Z,2576.00
2018-10-17T09:44:14.763Z,2576.00
2018-10-17T09:45:14.782Z,2568.00
2018-10-17T09:46:14.863Z,2544.00
2018-10-17T09:47:14.839Z,2528.00
2018-10-17T09:48:14.876Z,2468.00
2018-10-17T09:49:14.889Z,2404.00
2018-10-17T09:50:15.102Z,2412.00
2018-10-17T09:51:15.004Z,2416.00
2018-10-17T09:52:15.335Z,2416.00
2018-10-17T09:53:15.097Z,2404.00
2018-10-17T09:54:15.161Z,2412.00
2018-10-17T09:55:15.094Z,2412.00
2018-10-17T09:56:15.188Z,2420.00
2018-10-17T09:57:15.154Z,2432.00
2018-10-17T09:58:15.198Z,2440.00
2018-10-17T09:59:15.184Z,2428.00
2018-10-17T10:00:15.320Z,2424.00
2018-10-17T10:01:15.347Z,2416.00
2018-10-17T10:02:15.244Z,2408.00
2018-10-17T10:03:15.244Z,2392.00
2018-10-17T10:04:15.327Z,2380.00
2018-10-17T10:05:15.303Z,2376.00
2018-10-17T10:06:15.502Z,2352.00
2018-10-17T10:07:15.332Z,2332.00
2018-10-17T10:08:15.369Z,2332.00
2018-10-17T10:09:15.401Z,2356.00
2018-10-17T10:10:15.511Z,2372.00
2018-10-17T10:11:15.467Z,2380.00
2018-10-17T10:12:15.502Z,2368.00
2018-10-17T10:13:15.500Z,2328.00
2018-10-17T10:14:15.514Z,2312.00
2018-10-17T10:15:15.537Z,2292.00
2018-10-17T10:16:15.624Z,2272.00
2018-10-17T10:17:15.739Z,2264.00
2018-10-17T10:18:15.615Z,2256.00
2018-10-17T10:19:15.640Z,2268.00
2018-10-17T10:20:15.666Z,2236.00
2018-10-17T10:21:15.693Z,2204.00
2018-10-17T10:22:15.782Z,2184.00
2018-10-17T10:23:15.807Z,2164.00
2018-10-17T10:24:15.811Z,2148.00
2018-10-17T10:25:15.837Z,2148.00
2018-10-17T10:26:15.815Z,2136.00
2018-10-17T10:27:15.831Z,2148.00
2018-10-17T10:28:15.953Z,2172.00
2018-10-17T10:29:15.893Z,2188.00
2018-10-17T10:30:16.032Z,2192.00
2018-10-17T10:31:15.945Z,2184.00
2018-10-17T10:32:15.962Z,2188.00
2018-10-17T10:33:15.984Z,2192.00
2018-10-17T10:34:16.101Z,2208.00
2018-10-17T10:35:16.040Z,2204.00
2018-10-17T10:36:16.157Z,2188.00
2018-10-17T10:37:16.099Z,2188.00
2018-10-17T10:38:16.132Z,2176.00
2018-10-17T10:39:16.140Z,2156.00
2018-10-17T10:40:16.270Z,2140.00
2018-10-17T10:41:16.194Z,2124.00
2018-10-17T10:42:16.296Z,2096.00
2018-10-17T10:43:16.240Z,2080.00
2018-10-17T10:44:16.342Z,2052.00
2018-10-17T10:45:16.391Z,2032.00
2018-10-17T10:46:16.318Z,2020.00
2018-10-17T10:47:16.346Z,2008.00
2018-10-17T10:48:16.486Z,2008.00
2018-10-17T10:49:16.435Z,2012.00
2018-10-17T10:50:16.519Z,2024.00
2018-10-17T10:51:16.522Z,2024.00
2018-10-17T10:52:16.470Z,2036.00
2018-10-17T10:53:16.504Z,2028.00
2018-10-17T10:54:16.619Z,2036.00
2018-10-17T10:55:16.542Z,2028.00
2018-10-17T10:56:16.656Z,2032.00
2018-10-17T10:57:16.671Z,2024.00
2018-10-17T10:58:16.758Z,2032.00
2018-10-17T10:59:16.814Z,2028.00
2018-10-17T11:00:16.714Z,2024.00
2018-10-17T11:01:16.695Z,2032.00
2018-10-17T11:02:16.852Z,2024.00
2018-10-17T11:03:16.867Z,2032.00
2018-10-17T11:04:16.771Z,2028.00
2018-10-17T11:05:16.874Z,2032.00
2018-10-17T11:06:16.821Z,2032.00
2018-10-17T11:07:16.845Z,2032.00
2018-10-17T11:08:16.924Z,2036.00
2018-10-17T11:09:16.899Z,2040.00
2018-10-17T11:10:16.931Z,2040.00
2018-10-17T11:11:16.975Z,2044.00
2018-10-17T11:12:16.982Z,1948.00
2018-10-17T11:13:17.014Z,2036.00
2018-10-17T11:14:17.170Z,2040.00
2018-10-17T11:15:17.048Z,2048.00
2018-10-17T11:16:17.072Z,2060.00
2018-10-17T11:17:17.102Z,2060.00
2018-10-17T11:18:17.126Z,2068.00
2018-10-17T11:19:17.149Z,2068.00
2018-10-17T11:20:17.173Z,2072.00
2018-10-17T11:21:17.333Z,2072.00
2018-10-17T11:22:17.228Z,2076.00
2018-10-17T11:23:17.349Z,2080.00
2018-10-17T11:24:17.284Z,2080.00
2018-10-17T11:25:17.298Z,2084.00
2018-10-17T11:26:17.330Z,2084.00
2018-10-17T11:27:17.394Z,2092.00
2018-10-17T11:28:17.381Z,2092.00
2018-10-17T11:29:17.463Z,2096.00
2018-10-17T11:30:17.428Z,2100.00
2018-10-17T11:31:17.466Z,2096.00
2018-10-17T11:32:17.480Z,2104.00
2018-10-17T11:33:17.583Z,2112.00
2018-10-17T11:34:17.531Z,2112.00
2018-10-17T11:35:17.618Z,2092.00
2018-10-17T11:36:17.619Z,2100.00
2018-10-17T11:37:17.673Z,2096.00
2018-10-17T11:38:17.717Z,2084.00
2018-10-17T11:39:17.722Z,2068.00
2018-10-17T11:40:17.895Z,2056.00
2018-10-17T11:41:18.094Z,2112.00
2018-10-17T11:42:17.784Z,2116.00
2018-10-17T11:43:17.788Z,2020.00
2018-10-17T11:44:17.800Z,2028.00
2018-10-17T11:45:17.907Z,2052.00
2018-10-17T11:46:17.907Z,2060.00
2018-10-17T11:47:17.853Z,2072.00
2018-10-17T11:48:17.881Z,2068.00
2018-10-17T11:49:17.906Z,2080.00
2018-10-17T11:50:17.935Z,2056.00
2018-10-17T11:51:18.047Z,2012.00
2018-10-17T11:52:17.983Z,1952.00
2018-10-17T11:53:18.067Z,1896.00
2018-10-17T11:54:18.037Z,1892.00
2018-10-17T11:55:18.061Z,1912.00
2018-10-17T11:56:18.084Z,1912.00
2018-10-17T11:57:18.167Z,1944.00
2018-10-17T11:58:19.247Z,1968.00
2018-10-17T11:59:19.611Z,1976.00
2018-10-17T12:00:18.188Z,1972.00
2018-10-17T12:01:18.261Z,1964.00
2018-10-17T12:02:18.313Z,1964.00
2018-10-17T12:03:18.413Z,1952.00
2018-10-17T12:04:18.600Z,1924.00
2018-10-17T12:05:18.534Z,1852.00
2018-10-17T12:06:18.498Z,1848.00
2018-10-17T12:07:18.376Z,1856.00
2018-10-17T12:08:19.425Z,1936.00
2018-10-17T12:09:18.501Z,1908.00
2018-10-17T12:10:18.461Z,1936.00
2018-10-17T12:11:18.548Z,1884.00
2018-10-17T12:12:18.610Z,1900.00
2018-10-17T12:13:18.567Z,1828.00
2018-10-17T12:14:18.545Z,1968.00
2018-10-17T12:15:18.718Z,1964.00
2018-10-17T12:16:18.592Z,1952.00
2018-10-17T12:17:18.654Z,1944.00
2018-10-17T12:18:18.642Z,1888.00
2018-10-17T12:19:18.791Z,1944.00
2018-10-17T12:20:18.693Z,1872.00
2018-10-17T12:21:18.762Z,2000.00
2018-10-17T12:22:18.748Z,1952.00
2018-10-17T12:23:18.770Z,1920.00
2018-10-17T12:24:18.896Z,1844.00
2018-10-17T12:25:18.845Z,1892.00
2018-10-17T12:26:18.875Z,1832.00
2018-10-17T12:27:18.944Z,1836.00
2018-10-17T12:28:18.996Z,1788.00
2018-10-17T12:29:18.990Z,1812.00
2018-10-17T12:30:19.130Z,1780.00
2018-10-17T12:31:19.013Z,1860.00
2018-10-17T12:32:18.999Z,1824.00
2018-10-17T12:33:19.020Z,1836.00
2018-10-17T12:34:19.048Z,1876.00
2018-10-17T12:35:19.181Z,1880.00
2018-10-17T12:36:19.110Z,1888.00
2018-10-17T12:37:19.126Z,1884.00
2018-10-17T12:38:19.147Z,1860.00